sensor_id;sensor_type;location;lat;lon;timestamp;P1;durP1;ratioP1;P2;durP2;ratioP2
37997;SDS011;24079;51.824;4.682;2023-05-10T00:00:32;52.13;;;25.48;;
37997;SDS011;24079;51.824;4.682;2023-05-10T00:02:58;47.75;;;25.80;;
37997;SDS011;24079;51.824;4.682;2023-05-10T00:05:23;55.15;;;27.33;;
37997;SDS011;24079;51.824;4.682;2023-05-10T00:07:49;50.55;;;29.27;;
37997;SDS011;24079;51.824;4.682;2023-05-10T00:10:15;55.70;;;29.92;;
37997;SDS011;24079;51.824;4.682;2023-05-10T00:12:40;54.92;;;30.60;;
37997;SDS011;24079;51.824;4.682;2023-05-10T00:15:06;60.22;;;30.45;;
37997;SDS011;24079;51.824;4.682;2023-05-10T00:17:33;65.03;;;31.05;;
37997;SDS011;24079;51.824;4.682;2023-05-10T00:19:58;64.78;;;32.42;;
37997;SDS011;24079;51.824;4.682;2023-05-10T00:22:25;65.22;;;32.78;;
37997;SDS011;24079;51.824;4.682;2023-05-10T00:24:51;60.08;;;31.20;;
37997;SDS011;24079;51.824;4.682;2023-05-10T00:27:16;58.47;;;30.38;;
37997;SDS011;24079;51.824;4.682;2023-05-10T00:29:42;57.38;;;31.00;;
37997;SDS011;24079;51.824;4.682;2023-05-10T00:32:07;60.78;;;29.00;;
37997;SDS011;24079;51.824;4.682;2023-05-10T00:34:33;56.70;;;28.65;;
37997;SDS011;24079;51.824;4.682;2023-05-10T00:36:59;62.67;;;30.33;;
37997;SDS011;24079;51.824;4.682;2023-05-10T00:39:24;61.78;;;30.98;;
37997;SDS011;24079;51.824;4.682;2023-05-10T00:41:51;60.17;;;29.77;;
37997;SDS011;24079;51.824;4.682;2023-05-10T00:44:17;56.25;;;27.83;;
37997;SDS011;24079;51.824;4.682;2023-05-10T00:46:43;47.25;;;27.58;;
37997;SDS011;24079;51.824;4.682;2023-05-10T00:49:09;59.30;;;30.85;;
37997;SDS011;24079;51.824;4.682;2023-05-10T00:51:35;58.08;;;29.98;;
37997;SDS011;24079;51.824;4.682;2023-05-10T00:54:01;64.75;;;30.55;;
37997;SDS011;24079;51.824;4.682;2023-05-10T00:56:27;65.65;;;31.98;;
37997;SDS011;24079;51.824;4.682;2023-05-10T00:58:54;57.40;;;31.02;;
37997;SDS011;24079;51.824;4.682;2023-05-10T01:01:20;58.53;;;31.45;;
37997;SDS011;24079;51.824;4.682;2023-05-10T01:03:46;53.15;;;30.92;;
37997;SDS011;24079;51.824;4.682;2023-05-10T01:06:12;59.47;;;31.60;;
37997;SDS011;24079;51.824;4.682;2023-05-10T01:08:38;59.83;;;30.67;;
37997;SDS011;24079;51.824;4.682;2023-05-10T01:11:04;57.38;;;30.85;;
37997;SDS011;24079;51.824;4.682;2023-05-10T01:13:34;61.78;;;31.73;;
37997;SDS011;24079;51.824;4.682;2023-05-10T01:16:03;60.30;;;32.70;;
37997;SDS011;24079;51.824;4.682;2023-05-10T01:18:30;63.05;;;33.78;;
37997;SDS011;24079;51.824;4.682;2023-05-10T01:34:31;60.72;;;32.50;;
37997;SDS011;24079;51.824;4.682;2023-05-10T01:37:09;67.90;;;32.40;;
37997;SDS011;24079;51.824;4.682;2023-05-10T01:42:21;72.70;;;36.00;;
37997;SDS011;24079;51.824;4.682;2023-05-10T01:47:46;71.28;;;35.60;;
37997;SDS011;24079;51.824;4.682;2023-05-10T01:50:24;80.75;;;35.33;;
37997;SDS011;24079;51.824;4.682;2023-05-10T01:52:54;70.05;;;35.50;;
37997;SDS011;24079;51.824;4.682;2023-05-10T01:55:23;71.97;;;34.38;;
37997;SDS011;24079;51.824;4.682;2023-05-10T01:57:51;67.78;;;33.85;;
37997;SDS011;24079;51.824;4.682;2023-05-10T02:00:22;68.07;;;33.70;;
37997;SDS011;24079;51.824;4.682;2023-05-10T02:02:48;78.63;;;35.38;;
37997;SDS011;24079;51.824;4.682;2023-05-10T02:05:16;72.43;;;35.15;;
37997;SDS011;24079;51.824;4.682;2023-05-10T02:07:43;72.93;;;33.60;;
37997;SDS011;24079;51.824;4.682;2023-05-10T02:10:09;80.43;;;34.10;;
37997;SDS011;24079;51.824;4.682;2023-05-10T02:12:36;59.97;;;30.95;;
37997;SDS011;24079;51.824;4.682;2023-05-10T02:15:06;80.13;;;34.75;;
37997;SDS011;24079;51.824;4.682;2023-05-10T02:17:34;76.72;;;34.17;;
37997;SDS011;24079;51.824;4.682;2023-05-10T02:20:02;72.47;;;33.60;;
37997;SDS011;24079;51.824;4.682;2023-05-10T02:22:29;60.17;;;31.52;;
37997;SDS011;24079;51.824;4.682;2023-05-10T02:24:57;66.93;;;32.70;;
37997;SDS011;24079;51.824;4.682;2023-05-10T02:27:23;65.38;;;32.47;;
37997;SDS011;24079;51.824;4.682;2023-05-10T02:29:50;70.43;;;32.67;;
37997;SDS011;24079;51.824;4.682;2023-05-10T02:32:17;64.35;;;32.55;;
37997;SDS011;24079;51.824;4.682;2023-05-10T02:34:43;66.60;;;32.47;;
37997;SDS011;24079;51.824;4.682;2023-05-10T02:37:11;67.55;;;31.08;;
37997;SDS011;24079;51.824;4.682;2023-05-10T02:39:39;62.33;;;32.25;;
37997;SDS011;24079;51.824;4.682;2023-05-10T02:42:10;68.95;;;31.98;;
37997;SDS011;24079;51.824;4.682;2023-05-10T02:44:41;69.35;;;31.23;;
37997;SDS011;24079;51.824;4.682;2023-05-10T02:47:07;67.97;;;34.08;;
37997;SDS011;24079;51.824;4.682;2023-05-10T02:49:33;64.63;;;32.35;;
37997;SDS011;24079;51.824;4.682;2023-05-10T02:52:00;74.55;;;32.65;;
37997;SDS011;24079;51.824;4.682;2023-05-10T02:54:30;71.47;;;33.45;;
37997;SDS011;24079;51.824;4.682;2023-05-10T02:56:58;72.53;;;33.45;;
37997;SDS011;24079;51.824;4.682;2023-05-10T02:59:26;73.97;;;34.03;;
37997;SDS011;24079;51.824;4.682;2023-05-10T03:01:52;71.80;;;33.75;;
37997;SDS011;24079;51.824;4.682;2023-05-10T03:04:17;70.22;;;32.42;;
37997;SDS011;24079;51.824;4.682;2023-05-10T03:06:43;74.50;;;33.88;;
37997;SDS011;24079;51.824;4.682;2023-05-10T03:09:09;76.20;;;33.65;;
37997;SDS011;24079;51.824;4.682;2023-05-10T03:17:06;76.93;;;35.35;;
37997;SDS011;24079;51.824;4.682;2023-05-10T03:19:48;81.13;;;33.72;;
37997;SDS011;24079;51.824;4.682;2023-05-10T03:22:23;76.72;;;33.25;;
37997;SDS011;24079;51.824;4.682;2023-05-10T03:24:52;79.88;;;34.78;;
37997;SDS011;24079;51.824;4.682;2023-05-10T03:27:22;75.10;;;34.65;;
37997;SDS011;24079;51.824;4.682;2023-05-10T03:29:48;75.40;;;33.25;;
37997;SDS011;24079;51.824;4.682;2023-05-10T03:32:16;81.47;;;35.33;;
37997;SDS011;24079;51.824;4.682;2023-05-10T03:34:42;70.85;;;35.47;;
37997;SDS011;24079;51.824;4.682;2023-05-10T03:37:08;82.55;;;36.58;;
37997;SDS011;24079;51.824;4.682;2023-05-10T03:39:34;75.38;;;36.08;;
37997;SDS011;24079;51.824;4.682;2023-05-10T03:41:59;76.70;;;37.67;;
37997;SDS011;24079;51.824;4.682;2023-05-10T03:44:25;79.35;;;37.95;;
37997;SDS011;24079;51.824;4.682;2023-05-10T03:46:51;77.78;;;38.70;;
37997;SDS011;24079;51.824;4.682;2023-05-10T03:49:17;84.28;;;40.20;;
37997;SDS011;24079;51.824;4.682;2023-05-10T03:51:43;80.78;;;38.80;;
37997;SDS011;24079;51.824;4.682;2023-05-10T03:54:08;81.93;;;39.35;;
37997;SDS011;24079;51.824;4.682;2023-05-10T03:56:34;80.15;;;38.75;;
37997;SDS011;24079;51.824;4.682;2023-05-10T03:59:00;78.90;;;39.38;;
37997;SDS011;24079;51.824;4.682;2023-05-10T04:01:25;87.22;;;40.10;;
37997;SDS011;24079;51.824;4.682;2023-05-10T04:03:51;76.32;;;40.33;;
37997;SDS011;24079;51.824;4.682;2023-05-10T04:06:17;79.85;;;42.22;;
37997;SDS011;24079;51.824;4.682;2023-05-10T04:08:42;80.85;;;42.03;;
37997;SDS011;24079;51.824;4.682;2023-05-10T04:11:08;79.90;;;42.97;;
37997;SDS011;24079;51.824;4.682;2023-05-10T04:13:36;71.85;;;41.42;;
37997;SDS011;24079;51.824;4.682;2023-05-10T04:16:02;84.20;;;45.55;;
37997;SDS011;24079;51.824;4.682;2023-05-10T04:18:27;82.57;;;44.55;;
37997;SDS011;24079;51.824;4.682;2023-05-10T04:20:53;76.30;;;45.15;;
37997;SDS011;24079;51.824;4.682;2023-05-10T04:23:19;76.85;;;43.10;;
37997;SDS011;24079;51.824;4.682;2023-05-10T04:25:44;76.22;;;43.65;;
37997;SDS011;24079;51.824;4.682;2023-05-10T04:28:10;72.68;;;40.00;;
37997;SDS011;24079;51.824;4.682;2023-05-10T04:30:35;64.55;;;43.05;;
37997;SDS011;24079;51.824;4.682;2023-05-10T04:33:01;60.55;;;38.20;;
37997;SDS011;24079;51.824;4.682;2023-05-10T04:35:28;61.45;;;38.33;;
37997;SDS011;24079;51.824;4.682;2023-05-10T04:37:54;70.10;;;43.03;;
37997;SDS011;24079;51.824;4.682;2023-05-10T04:40:20;69.25;;;41.45;;
37997;SDS011;24079;51.824;4.682;2023-05-10T04:42:46;74.90;;;44.65;;
37997;SDS011;24079;51.824;4.682;2023-05-10T04:45:12;83.22;;;47.33;;
37997;SDS011;24079;51.824;4.682;2023-05-10T04:47:40;79.00;;;45.60;;
37997;SDS011;24079;51.824;4.682;2023-05-10T04:50:05;78.28;;;44.83;;
37997;SDS011;24079;51.824;4.682;2023-05-10T04:52:32;88.07;;;47.65;;
37997;SDS011;24079;51.824;4.682;2023-05-10T04:54:58;86.63;;;47.90;;
37997;SDS011;24079;51.824;4.682;2023-05-10T04:57:25;94.53;;;50.67;;
37997;SDS011;24079;51.824;4.682;2023-05-10T04:59:51;95.95;;;48.63;;
37997;SDS011;24079;51.824;4.682;2023-05-10T05:02:17;106.32;;;51.53;;
37997;SDS011;24079;51.824;4.682;2023-05-10T05:04:43;98.32;;;50.58;;
37997;SDS011;24079;51.824;4.682;2023-05-10T05:07:09;91.90;;;48.50;;
37997;SDS011;24079;51.824;4.682;2023-05-10T05:09:35;97.22;;;49.47;;
37997;SDS011;24079;51.824;4.682;2023-05-10T05:12:01;87.88;;;45.22;;
37997;SDS011;24079;51.824;4.682;2023-05-10T05:14:27;92.80;;;43.60;;
37997;SDS011;24079;51.824;4.682;2023-05-10T05:16:53;96.72;;;45.03;;
37997;SDS011;24079;51.824;4.682;2023-05-10T05:19:19;94.88;;;41.53;;
37997;SDS011;24079;51.824;4.682;2023-05-10T05:21:46;92.97;;;42.75;;
37997;SDS011;24079;51.824;4.682;2023-05-10T05:24:12;98.53;;;43.92;;
37997;SDS011;24079;51.824;4.682;2023-05-10T05:26:37;101.70;;;43.10;;
37997;SDS011;24079;51.824;4.682;2023-05-10T05:29:03;88.82;;;44.22;;
37997;SDS011;24079;51.824;4.682;2023-05-10T05:31:29;97.13;;;45.47;;
37997;SDS011;24079;51.824;4.682;2023-05-10T05:33:55;90.43;;;44.67;;
37997;SDS011;24079;51.824;4.682;2023-05-10T05:36:21;93.20;;;45.17;;
37997;SDS011;24079;51.824;4.682;2023-05-10T05:38:46;76.22;;;42.40;;
37997;SDS011;24079;51.824;4.682;2023-05-10T05:41:12;77.85;;;42.95;;
37997;SDS011;24079;51.824;4.682;2023-05-10T05:43:38;81.40;;;42.42;;
37997;SDS011;24079;51.824;4.682;2023-05-10T05:46:04;71.25;;;38.72;;
37997;SDS011;24079;51.824;4.682;2023-05-10T05:48:30;59.92;;;34.03;;
37997;SDS011;24079;51.824;4.682;2023-05-10T05:50:56;59.78;;;35.58;;
37997;SDS011;24079;51.824;4.682;2023-05-10T05:53:22;58.53;;;37.30;;
37997;SDS011;24079;51.824;4.682;2023-05-10T05:55:52;62.63;;;36.53;;
37997;SDS011;24079;51.824;4.682;2023-05-10T05:58:21;67.00;;;41.88;;
37997;SDS011;24079;51.824;4.682;2023-05-10T06:00:47;66.80;;;38.25;;
37997;SDS011;24079;51.824;4.682;2023-05-10T06:03:13;57.03;;;35.30;;
37997;SDS011;24079;51.824;4.682;2023-05-10T06:05:39;62.88;;;36.95;;
37997;SDS011;24079;51.824;4.682;2023-05-10T06:08:05;59.05;;;35.15;;
37997;SDS011;24079;51.824;4.682;2023-05-10T06:10:30;63.53;;;38.92;;
37997;SDS011;24079;51.824;4.682;2023-05-10T06:12:56;60.63;;;39.13;;
37997;SDS011;24079;51.824;4.682;2023-05-10T06:15:22;64.18;;;40.92;;
37997;SDS011;24079;51.824;4.682;2023-05-10T06:17:47;65.65;;;40.58;;
37997;SDS011;24079;51.824;4.682;2023-05-10T06:20:14;63.60;;;37.50;;
37997;SDS011;24079;51.824;4.682;2023-05-10T06:22:40;61.33;;;35.88;;
37997;SDS011;24079;51.824;4.682;2023-05-10T06:25:06;70.07;;;38.92;;
37997;SDS011;24079;51.824;4.682;2023-05-10T06:27:32;69.53;;;39.13;;
37997;SDS011;24079;51.824;4.682;2023-05-10T06:29:58;72.80;;;42.15;;
37997;SDS011;24079;51.824;4.682;2023-05-10T06:32:24;61.38;;;39.25;;
37997;SDS011;24079;51.824;4.682;2023-05-10T06:34:49;69.53;;;39.03;;
37997;SDS011;24079;51.824;4.682;2023-05-10T06:37:15;71.28;;;41.63;;
37997;SDS011;24079;51.824;4.682;2023-05-10T06:39:40;69.32;;;41.40;;
37997;SDS011;24079;51.824;4.682;2023-05-10T06:42:06;69.25;;;41.22;;
37997;SDS011;24079;51.824;4.682;2023-05-10T06:44:32;75.57;;;42.97;;
37997;SDS011;24079;51.824;4.682;2023-05-10T06:46:58;66.50;;;38.25;;
37997;SDS011;24079;51.824;4.682;2023-05-10T06:49:24;60.10;;;36.72;;
37997;SDS011;24079;51.824;4.682;2023-05-10T06:51:50;67.13;;;37.88;;
37997;SDS011;24079;51.824;4.682;2023-05-10T06:54:17;55.28;;;31.90;;
37997;SDS011;24079;51.824;4.682;2023-05-10T06:56:43;47.45;;;29.08;;
37997;SDS011;24079;51.824;4.682;2023-05-10T06:59:09;48.88;;;28.98;;
37997;SDS011;24079;51.824;4.682;2023-05-10T07:01:35;54.95;;;31.33;;
37997;SDS011;24079;51.824;4.682;2023-05-10T07:04:00;56.38;;;31.02;;
37997;SDS011;24079;51.824;4.682;2023-05-10T07:06:26;55.20;;;32.42;;
37997;SDS011;24079;51.824;4.682;2023-05-10T07:08:52;59.70;;;33.17;;
37997;SDS011;24079;51.824;4.682;2023-05-10T07:11:18;52.83;;;30.42;;
37997;SDS011;24079;51.824;4.682;2023-05-10T07:13:43;41.85;;;23.30;;
37997;SDS011;24079;51.824;4.682;2023-05-10T07:16:11;38.65;;;21.05;;
37997;SDS011;24079;51.824;4.682;2023-05-10T07:18:36;33.15;;;19.20;;
37997;SDS011;24079;51.824;4.682;2023-05-10T07:21:02;27.92;;;16.20;;
37997;SDS011;24079;51.824;4.682;2023-05-10T07:26:03;29.33;;;17.33;;
37997;SDS011;24079;51.824;4.682;2023-05-10T07:28:29;30.95;;;18.10;;
37997;SDS011;24079;51.824;4.682;2023-05-10T07:30:55;29.63;;;18.15;;
37997;SDS011;24079;51.824;4.682;2023-05-10T07:33:20;31.98;;;18.60;;
37997;SDS011;24079;51.824;4.682;2023-05-10T07:35:46;33.25;;;19.23;;
37997;SDS011;24079;51.824;4.682;2023-05-10T07:38:11;31.38;;;18.05;;
37997;SDS011;24079;51.824;4.682;2023-05-10T07:40:38;28.73;;;17.20;;
37997;SDS011;24079;51.824;4.682;2023-05-10T07:43:04;28.08;;;17.27;;
37997;SDS011;24079;51.824;4.682;2023-05-10T07:45:29;31.63;;;19.80;;
37997;SDS011;24079;51.824;4.682;2023-05-10T07:47:55;34.80;;;21.52;;
37997;SDS011;24079;51.824;4.682;2023-05-10T07:50:21;31.30;;;19.77;;
37997;SDS011;24079;51.824;4.682;2023-05-10T07:52:47;29.63;;;18.08;;
37997;SDS011;24079;51.824;4.682;2023-05-10T07:55:13;24.85;;;16.02;;
37997;SDS011;24079;51.824;4.682;2023-05-10T07:57:38;33.42;;;16.88;;
37997;SDS011;24079;51.824;4.682;2023-05-10T08:00:04;27.73;;;16.95;;
37997;SDS011;24079;51.824;4.682;2023-05-10T08:02:31;28.95;;;15.98;;
37997;SDS011;24079;51.824;4.682;2023-05-10T08:04:58;30.67;;;15.80;;
37997;SDS011;24079;51.824;4.682;2023-05-10T08:07:24;27.20;;;15.38;;
37997;SDS011;24079;51.824;4.682;2023-05-10T08:09:50;26.83;;;14.13;;
37997;SDS011;24079;51.824;4.682;2023-05-10T08:12:15;19.15;;;12.00;;
37997;SDS011;24079;51.824;4.682;2023-05-10T08:14:41;17.13;;;11.40;;
37997;SDS011;24079;51.824;4.682;2023-05-10T08:17:06;26.92;;;11.27;;
37997;SDS011;24079;51.824;4.682;2023-05-10T08:19:32;18.70;;;11.98;;
37997;SDS011;24079;51.824;4.682;2023-05-10T08:21:58;22.45;;;12.18;;
37997;SDS011;24079;51.824;4.682;2023-05-10T08:24:23;18.17;;;10.43;;
37997;SDS011;24079;51.824;4.682;2023-05-10T08:26:49;16.60;;;9.77;;
37997;SDS011;24079;51.824;4.682;2023-05-10T08:29:15;14.52;;;8.32;;
37997;SDS011;24079;51.824;4.682;2023-05-10T08:31:40;15.45;;;8.00;;
37997;SDS011;24079;51.824;4.682;2023-05-10T08:34:06;13.95;;;7.95;;
37997;SDS011;24079;51.824;4.682;2023-05-10T08:36:32;11.38;;;7.45;;
37997;SDS011;24079;51.824;4.682;2023-05-10T08:38:58;12.93;;;7.32;;
37997;SDS011;24079;51.824;4.682;2023-05-10T08:41:24;14.15;;;6.70;;
37997;SDS011;24079;51.824;4.682;2023-05-10T08:43:50;12.93;;;8.02;;
37997;SDS011;24079;51.824;4.682;2023-05-10T08:46:20;14.20;;;8.32;;
37997;SDS011;24079;51.824;4.682;2023-05-10T08:48:46;15.23;;;9.00;;
37997;SDS011;24079;51.824;4.682;2023-05-10T08:51:14;23.52;;;10.10;;
37997;SDS011;24079;51.824;4.682;2023-05-10T08:53:42;15.25;;;9.20;;
37997;SDS011;24079;51.824;4.682;2023-05-10T08:56:09;12.95;;;8.45;;
37997;SDS011;24079;51.824;4.682;2023-05-10T08:58:35;16.13;;;8.65;;
37997;SDS011;24079;51.824;4.682;2023-05-10T09:01:01;13.38;;;8.68;;
37997;SDS011;24079;51.824;4.682;2023-05-10T09:03:28;15.50;;;8.50;;
37997;SDS011;24079;51.824;4.682;2023-05-10T09:05:55;12.10;;;7.13;;
37997;SDS011;24079;51.824;4.682;2023-05-10T09:08:22;11.50;;;6.65;;
37997;SDS011;24079;51.824;4.682;2023-05-10T09:10:50;8.55;;;6.60;;
37997;SDS011;24079;51.824;4.682;2023-05-10T09:13:16;12.52;;;6.90;;
37997;SDS011;24079;51.824;4.682;2023-05-10T09:15:44;11.82;;;6.85;;
37997;SDS011;24079;51.824;4.682;2023-05-10T09:18:10;9.75;;;6.63;;
37997;SDS011;24079;51.824;4.682;2023-05-10T09:20:36;11.68;;;7.20;;
37997;SDS011;24079;51.824;4.682;2023-05-10T09:23:01;11.27;;;6.30;;
37997;SDS011;24079;51.824;4.682;2023-05-10T09:25:27;9.10;;;6.38;;
37997;SDS011;24079;51.824;4.682;2023-05-10T09:27:53;11.85;;;7.30;;
37997;SDS011;24079;51.824;4.682;2023-05-10T09:30:23;12.85;;;7.88;;
37997;SDS011;24079;51.824;4.682;2023-05-10T09:32:51;12.27;;;7.63;;
37997;SDS011;24079;51.824;4.682;2023-05-10T09:35:18;13.15;;;8.45;;
37997;SDS011;24079;51.824;4.682;2023-05-10T09:37:46;10.65;;;7.03;;
37997;SDS011;24079;51.824;4.682;2023-05-10T09:40:18;11.40;;;7.35;;
37997;SDS011;24079;51.824;4.682;2023-05-10T09:45:16;10.90;;;7.05;;
37997;SDS011;24079;51.824;4.682;2023-05-10T09:47:42;13.15;;;6.75;;
37997;SDS011;24079;51.824;4.682;2023-05-10T09:50:09;12.70;;;6.40;;
37997;SDS011;24079;51.824;4.682;2023-05-10T09:52:54;7.50;;;5.68;;
37997;SDS011;24079;51.824;4.682;2023-05-10T09:55:23;10.80;;;5.60;;
37997;SDS011;24079;51.824;4.682;2023-05-10T09:57:58;9.18;;;5.15;;
37997;SDS011;24079;51.824;4.682;2023-05-10T10:00:25;11.48;;;6.10;;
37997;SDS011;24079;51.824;4.682;2023-05-10T10:02:56;10.93;;;7.00;;
37997;SDS011;24079;51.824;4.682;2023-05-10T10:05:32;10.33;;;6.67;;
37997;SDS011;24079;51.824;4.682;2023-05-10T10:08:00;9.48;;;6.38;;
37997;SDS011;24079;51.824;4.682;2023-05-10T10:10:29;9.45;;;6.50;;
37997;SDS011;24079;51.824;4.682;2023-05-10T10:12:56;9.90;;;6.85;;
37997;SDS011;24079;51.824;4.682;2023-05-10T10:15:23;9.07;;;6.85;;
37997;SDS011;24079;51.824;4.682;2023-05-10T10:17:50;11.52;;;7.45;;
37997;SDS011;24079;51.824;4.682;2023-05-10T10:20:17;10.45;;;6.97;;
37997;SDS011;24079;51.824;4.682;2023-05-10T10:22:44;13.23;;;7.85;;
37997;SDS011;24079;51.824;4.682;2023-05-10T10:25:11;15.00;;;7.47;;
37997;SDS011;24079;51.824;4.682;2023-05-10T10:30:37;10.93;;;6.80;;
37997;SDS011;24079;51.824;4.682;2023-05-10T10:35:52;13.55;;;7.38;;
37997;SDS011;24079;51.824;4.682;2023-05-10T10:38:20;15.48;;;7.68;;
37997;SDS011;24079;51.824;4.682;2023-05-10T10:40:46;9.57;;;6.53;;
37997;SDS011;24079;51.824;4.682;2023-05-10T10:43:23;11.75;;;6.00;;
37997;SDS011;24079;51.824;4.682;2023-05-10T10:48:39;5.82;;;4.50;;
37997;SDS011;24079;51.824;4.682;2023-05-10T10:51:06;9.50;;;5.28;;
37997;SDS011;24079;51.824;4.682;2023-05-10T10:53:32;9.38;;;5.18;;
37997;SDS011;24079;51.824;4.682;2023-05-10T10:56:07;11.65;;;5.28;;
37997;SDS011;24079;51.824;4.682;2023-05-10T10:58:35;9.35;;;5.63;;
37997;SDS011;24079;51.824;4.682;2023-05-10T11:01:15;8.60;;;5.35;;
37997;SDS011;24079;51.824;4.682;2023-05-10T11:06:29;11.18;;;6.07;;
37997;SDS011;24079;51.824;4.682;2023-05-10T11:08:59;13.27;;;6.82;;
37997;SDS011;24079;51.824;4.682;2023-05-10T11:11:32;11.55;;;6.90;;
37997;SDS011;24079;51.824;4.682;2023-05-10T11:14:06;12.75;;;8.00;;
37997;SDS011;24079;51.824;4.682;2023-05-10T11:16:42;16.13;;;8.52;;
37997;SDS011;24079;51.824;4.682;2023-05-10T11:19:12;21.35;;;11.32;;
37997;SDS011;24079;51.824;4.682;2023-05-10T11:21:49;20.58;;;11.73;;
37997;SDS011;24079;51.824;4.682;2023-05-10T11:24:29;19.35;;;11.95;;
37997;SDS011;24079;51.824;4.682;2023-05-10T11:26:55;16.98;;;11.32;;
37997;SDS011;24079;51.824;4.682;2023-05-10T11:29:21;15.80;;;10.13;;
37997;SDS011;24079;51.824;4.682;2023-05-10T11:31:47;15.73;;;9.90;;
37997;SDS011;24079;51.824;4.682;2023-05-10T11:34:28;15.55;;;9.27;;
37997;SDS011;24079;51.824;4.682;2023-05-10T11:37:00;17.55;;;9.77;;
37997;SDS011;24079;51.824;4.682;2023-05-10T11:39:27;12.15;;;8.48;;
37997;SDS011;24079;51.824;4.682;2023-05-10T11:41:54;14.25;;;8.23;;
37997;SDS011;24079;51.824;4.682;2023-05-10T11:44:20;21.25;;;10.13;;
37997;SDS011;24079;51.824;4.682;2023-05-10T11:46:45;14.55;;;8.88;;
37997;SDS011;24079;51.824;4.682;2023-05-10T11:49:11;13.70;;;8.73;;
37997;SDS011;24079;51.824;4.682;2023-05-10T11:51:38;12.32;;;6.88;;
37997;SDS011;24079;51.824;4.682;2023-05-10T11:54:09;9.75;;;6.60;;
37997;SDS011;24079;51.824;4.682;2023-05-10T11:56:36;12.43;;;6.65;;
37997;SDS011;24079;51.824;4.682;2023-05-10T11:59:03;13.25;;;6.80;;
37997;SDS011;24079;51.824;4.682;2023-05-10T12:01:29;11.35;;;6.82;;
37997;SDS011;24079;51.824;4.682;2023-05-10T12:03:56;14.18;;;6.47;;
37997;SDS011;24079;51.824;4.682;2023-05-10T12:06:26;12.45;;;6.20;;
37997;SDS011;24079;51.824;4.682;2023-05-10T12:08:53;10.52;;;7.03;;
37997;SDS011;24079;51.824;4.682;2023-05-10T12:11:20;14.98;;;8.00;;
37997;SDS011;24079;51.824;4.682;2023-05-10T12:13:50;15.35;;;8.32;;
37997;SDS011;24079;51.824;4.682;2023-05-10T12:16:18;12.27;;;6.97;;
37997;SDS011;24079;51.824;4.682;2023-05-10T12:18:49;17.10;;;7.32;;
37997;SDS011;24079;51.824;4.682;2023-05-10T12:21:19;11.82;;;6.88;;
37997;SDS011;24079;51.824;4.682;2023-05-10T12:23:46;7.22;;;3.92;;
37997;SDS011;24079;51.824;4.682;2023-05-10T12:26:15;6.60;;;4.05;;
37997;SDS011;24079;51.824;4.682;2023-05-10T12:28:41;4.85;;;3.80;;
37997;SDS011;24079;51.824;4.682;2023-05-10T12:31:07;6.57;;;3.47;;
37997;SDS011;24079;51.824;4.682;2023-05-10T12:33:37;11.95;;;4.47;;
37997;SDS011;24079;51.824;4.682;2023-05-10T12:36:05;6.10;;;3.22;;
37997;SDS011;24079;51.824;4.682;2023-05-10T12:38:33;6.15;;;3.30;;
37997;SDS011;24079;51.824;4.682;2023-05-10T12:41:01;7.38;;;3.58;;
37997;SDS011;24079;51.824;4.682;2023-05-10T12:43:28;7.30;;;3.95;;
37997;SDS011;24079;51.824;4.682;2023-05-10T12:45:54;7.30;;;3.38;;
37997;SDS011;24079;51.824;4.682;2023-05-10T12:48:20;10.05;;;3.40;;
37997;SDS011;24079;51.824;4.682;2023-05-10T12:50:46;9.60;;;3.78;;
37997;SDS011;24079;51.824;4.682;2023-05-10T12:53:13;9.05;;;4.20;;
37997;SDS011;24079;51.824;4.682;2023-05-10T12:55:43;8.30;;;3.75;;
37997;SDS011;24079;51.824;4.682;2023-05-10T12:58:09;8.85;;;3.67;;
37997;SDS011;24079;51.824;4.682;2023-05-10T13:00:36;6.25;;;4.15;;
37997;SDS011;24079;51.824;4.682;2023-05-10T13:03:03;6.00;;;3.58;;
37997;SDS011;24079;51.824;4.682;2023-05-10T13:05:32;7.18;;;3.40;;
37997;SDS011;24079;51.824;4.682;2023-05-10T13:07:58;9.02;;;4.15;;
37997;SDS011;24079;51.824;4.682;2023-05-10T13:10:24;5.70;;;3.33;;
37997;SDS011;24079;51.824;4.682;2023-05-10T13:12:50;5.88;;;4.28;;
37997;SDS011;24079;51.824;4.682;2023-05-10T13:15:16;7.93;;;3.80;;
37997;SDS011;24079;51.824;4.682;2023-05-10T13:17:42;6.80;;;3.72;;
37997;SDS011;24079;51.824;4.682;2023-05-10T13:20:09;5.57;;;3.17;;
37997;SDS011;24079;51.824;4.682;2023-05-10T13:22:35;7.40;;;3.10;;
37997;SDS011;24079;51.824;4.682;2023-05-10T13:25:01;6.43;;;2.90;;
37997;SDS011;24079;51.824;4.682;2023-05-10T13:27:27;7.82;;;2.78;;
37997;SDS011;24079;51.824;4.682;2023-05-10T13:29:53;10.63;;;3.72;;
37997;SDS011;24079;51.824;4.682;2023-05-10T13:32:20;9.15;;;3.45;;
37997;SDS011;24079;51.824;4.682;2023-05-10T13:34:45;15.85;;;3.90;;
37997;SDS011;24079;51.824;4.682;2023-05-10T13:37:11;8.82;;;3.58;;
37997;SDS011;24079;51.824;4.682;2023-05-10T13:39:37;6.38;;;3.25;;
37997;SDS011;24079;51.824;4.682;2023-05-10T13:42:03;7.45;;;3.63;;
37997;SDS011;24079;51.824;4.682;2023-05-10T13:44:29;7.50;;;3.35;;
37997;SDS011;24079;51.824;4.682;2023-05-10T13:46:55;7.47;;;3.40;;
37997;SDS011;24079;51.824;4.682;2023-05-10T13:49:21;8.73;;;3.60;;
37997;SDS011;24079;51.824;4.682;2023-05-10T13:51:47;7.97;;;3.35;;
37997;SDS011;24079;51.824;4.682;2023-05-10T13:54:12;8.48;;;3.58;;
37997;SDS011;24079;51.824;4.682;2023-05-10T13:56:38;10.23;;;3.75;;
37997;SDS011;24079;51.824;4.682;2023-05-10T13:59:04;8.07;;;4.43;;
37997;SDS011;24079;51.824;4.682;2023-05-10T14:01:30;8.52;;;4.72;;
37997;SDS011;24079;51.824;4.682;2023-05-10T14:03:56;8.00;;;4.15;;
37997;SDS011;24079;51.824;4.682;2023-05-10T14:06:21;8.10;;;4.70;;
37997;SDS011;24079;51.824;4.682;2023-05-10T14:08:47;6.90;;;4.03;;
37997;SDS011;24079;51.824;4.682;2023-05-10T14:11:12;7.70;;;3.45;;
37997;SDS011;24079;51.824;4.682;2023-05-10T14:13:38;9.02;;;3.60;;
37997;SDS011;24079;51.824;4.682;2023-05-10T14:16:04;8.30;;;2.95;;
37997;SDS011;24079;51.824;4.682;2023-05-10T14:18:30;4.68;;;2.33;;
37997;SDS011;24079;51.824;4.682;2023-05-10T14:20:55;6.82;;;2.45;;
37997;SDS011;24079;51.824;4.682;2023-05-10T14:23:22;5.95;;;3.25;;
37997;SDS011;24079;51.824;4.682;2023-05-10T14:25:51;5.10;;;2.65;;
37997;SDS011;24079;51.824;4.682;2023-05-10T14:28:17;4.57;;;2.55;;
37997;SDS011;24079;51.824;4.682;2023-05-10T14:30:43;7.05;;;2.60;;
37997;SDS011;24079;51.824;4.682;2023-05-10T14:33:09;7.78;;;2.95;;
37997;SDS011;24079;51.824;4.682;2023-05-10T14:35:35;4.80;;;2.33;;
37997;SDS011;24079;51.824;4.682;2023-05-10T14:38:01;11.23;;;2.92;;
37997;SDS011;24079;51.824;4.682;2023-05-10T14:40:28;14.55;;;3.10;;
37997;SDS011;24079;51.824;4.682;2023-05-10T14:42:54;6.43;;;2.60;;
37997;SDS011;24079;51.824;4.682;2023-05-10T14:45:21;10.88;;;2.63;;
37997;SDS011;24079;51.824;4.682;2023-05-10T14:47:47;6.60;;;2.47;;
37997;SDS011;24079;51.824;4.682;2023-05-10T14:50:13;5.47;;;3.05;;
37997;SDS011;24079;51.824;4.682;2023-05-10T14:52:39;6.22;;;2.90;;
37997;SDS011;24079;51.824;4.682;2023-05-10T14:55:04;3.85;;;2.60;;
37997;SDS011;24079;51.824;4.682;2023-05-10T14:57:30;7.22;;;2.80;;
37997;SDS011;24079;51.824;4.682;2023-05-10T14:59:57;7.50;;;2.78;;
37997;SDS011;24079;51.824;4.682;2023-05-10T15:02:22;6.25;;;3.40;;
37997;SDS011;24079;51.824;4.682;2023-05-10T15:04:48;5.90;;;3.13;;
37997;SDS011;24079;51.824;4.682;2023-05-10T15:07:14;4.57;;;2.90;;
37997;SDS011;24079;51.824;4.682;2023-05-10T15:09:41;6.40;;;3.42;;